Arca — PDHT — position and weather

sailwx.info

Track history (hours):
 
Tides and Currents Weather Stations Pressure Air Temp Water Temp Dewpoint Dewpoint Depression Visibility Wind Speed Wind Dir Waves Ship Positions

Oceanographic research ship Arca (Netherlands)

Detailed information on ship capabilities available from University of Delaware's Ocean Information Center.

Last reported at 2019-Oct-17 18:29 UTC. Time now 2019-Oct-17 18:34 UTC.
Position N 52°06' E 004°16'.

Length 83 m; draft 5 m.

Type: Law enforcement. MMSI: 244454000.

Date/timePositionNaut miles runAvg speedWind from/ knotsBaromVisibWave heightAir tempDewpointWater temp
2019-Oct-17 18:29N 52°06' E 004°16'0 0.0
2019-Oct-17 17:59N 52°06' E 004°16'0 0.0
2019-Oct-17 17:29N 52°06' E 004°16'0 0.0
2019-Oct-17 16:59N 52°06' E 004°16'2 3.3
2019-Oct-17 16:31N 52°07' E 004°14'714.2
2019-Oct-17 16:00N 52°04' E 004°04'714.2
2019-Oct-17 15:30N 52°01' E 003°54'714.0
2019-Oct-17 15:00N 51°59' E 003°42'713.7
2019-Oct-17 14:29N 51°57' E 003°32'11 5.1
2019-Oct-17 12:21N 51°53' E 003°15'2 0.6
2019-Oct-17 08:22N 51°51' E 003°13'1 1.0
2019-Oct-17 07:12N 51°50' E 003°11'1 0.1
2019-Oct-16 23:06N 51°50' E 003°13'1 0.2
2019-Oct-16 20:36N 51°51' E 003°13'2 0.6
2019-Oct-16 17:47N 51°52' E 003°14'1 0.1
2019-Oct-16 11:37N 51°52' E 003°14'0 0.0
2019-Oct-16 10:07N 51°52' E 003°14'4 1.1
2019-Oct-16 06:40N 51°48' E 003°13'2 0.3
2019-Oct-15 23:34N 51°50' E 003°15'3 3.6
2019-Oct-15 22:42N 51°53' E 003°15'23 8.0
2019-Oct-15 19:48N 51°31' E 003°27'412.3
2019-Oct-15 19:29N 51°28' E 003°31'4 7.0
2019-Oct-15 18:59N 51°26' E 003°36'5 8.9
2019-Oct-15 18:22N 51°30' E 003°29'23 5.5
2019-Oct-15 14:11N 51°51' E 003°15'1 0.3
2019-Oct-15 10:12N 51°52' E 003°15'3 7.0
2019-Oct-15 09:49N 51°49' E 003°14'0 0.1
2019-Oct-15 08:29N 51°49' E 003°15'3 1.1
2019-Oct-15 05:54N 51°52' E 003°16'3 0.2
2019-Oct-14 18:46N 51°49' E 003°15'5 8.0
2019-Oct-14 18:12N 51°54' E 003°17'3 6.3
2019-Oct-14 17:47N 51°51' E 003°16'11 6.4
2019-Oct-14 16:06N 51°52' E 003°34'111.2
2019-Oct-14 15:58N 51°52' E 003°36'510.7
2019-Oct-14 15:30N 51°54' E 003°43'5 9.7
2019-Oct-14 15:00N 51°57' E 003°50'510.0
2019-Oct-14 14:30N 52°00' E 003°56'2 3.3
2019-Oct-14 14:00N 52°02' E 003°55'1 2.2
2019-Oct-14 13:31N 52°02' E 003°56'1 2.9
2019-Oct-14 13:00N 52°02' E 003°59'4 8.6
2019-Oct-14 12:30N 52°05' E 004°04'612.1
2019-Oct-14 12:00N 52°08' E 004°12'3 3.3
2019-Oct-14 11:00N 52°06' E 004°16'0 0.0
2019-Oct-14 10:28N 52°06' E 004°16'0 0.0
2019-Oct-14 09:58N 52°06' E 004°16'0 0.0
2019-Oct-14 09:28N 52°06' E 004°16'0 0.0
2019-Oct-14 08:58N 52°06' E 004°16'0 0.0
2019-Oct-14 08:28N 52°06' E 004°16'0 0.0
2019-Oct-14 07:58N 52°06' E 004°16'0 0.0
2019-Oct-14 07:28N 52°06' E 004°16'0 0.0
2019-Oct-14 06:52N 52°06' E 004°16'0 0.0
2019-Oct-14 06:28N 52°06' E 004°16'0 0.0
2019-Oct-14 05:58N 52°06' E 004°16'0 0.0
2019-Oct-14 05:28N 52°06' E 004°16'0 0.0
2019-Oct-14 04:58N 52°06' E 004°16'0 0.0
2019-Oct-14 04:28N 52°06' E 004°16'0 0.0
2019-Oct-14 03:58N 52°06' E 004°16'0 0.0
2019-Oct-14 03:28N 52°06' E 004°16'0 0.0
2019-Oct-14 02:58N 52°06' E 004°16'0 0.0
2019-Oct-14 02:25N 52°06' E 004°16'0 0.0
2019-Oct-14 01:55N 52°06' E 004°16'0 0.0
2019-Oct-14 01:25N 52°06' E 004°16'0 0.0
2019-Oct-14 00:58N 52°06' E 004°16'0 0.0
2019-Oct-14 00:28N 52°06' E 004°16'0 0.0
2019-Oct-13 23:58N 52°06' E 004°16'0 0.0
2019-Oct-13 23:28N 52°06' E 004°16'0 0.0
2019-Oct-13 22:58N 52°06' E 004°16'0 0.0
2019-Oct-13 22:28N 52°06' E 004°16'0 0.0
2019-Oct-13 21:58N 52°06' E 004°16'0 0.0
2019-Oct-13 21:28N 52°06' E 004°16'0 0.0
2019-Oct-13 20:58N 52°06' E 004°16'0 0.0
2019-Oct-13 20:28N 52°06' E 004°16'0 0.0
2019-Oct-13 19:58N 52°06' E 004°16'0 0.0
2019-Oct-13 19:28N 52°06' E 004°16'0 0.0
2019-Oct-13 18:58N 52°06' E 004°16'0 0.0
2019-Oct-13 18:28N 52°06' E 004°16'0 0.0
2019-Oct-13 17:58N 52°06' E 004°16'0 0.0
2019-Oct-13 17:28N 52°06' E 004°16'0 0.0
2019-Oct-13 16:58N 52°06' E 004°16'0 0.0
2019-Oct-13 16:28N 52°06' E 004°16'0 0.0
2019-Oct-13 15:58N 52°06' E 004°16'0 0.0
2019-Oct-13 15:28N 52°06' E 004°16'0 0.0
2019-Oct-13 14:58N 52°06' E 004°16'0 0.0
2019-Oct-13 14:25N 52°06' E 004°16'0 0.0
2019-Oct-13 13:58N 52°06' E 004°16'0 0.0
2019-Oct-13 13:28N 52°06' E 004°16'0 0.0
2019-Oct-13 12:58N 52°06' E 004°16'0 0.0
2019-Oct-13 12:28N 52°06' E 004°16'0 0.0
2019-Oct-13 11:58N 52°06' E 004°16'0 0.0
2019-Oct-13 11:28N 52°06' E 004°16'0 0.0
2019-Oct-13 10:58N 52°06' E 004°16'0 0.0
2019-Oct-13 10:28N 52°06' E 004°16'0 0.0
2019-Oct-13 09:58N 52°06' E 004°16'0 0.0
2019-Oct-13 09:28N 52°06' E 004°16'0 0.0
2019-Oct-13 08:58N 52°06' E 004°16'0 0.0
2019-Oct-13 08:28N 52°06' E 004°16'0 0.0
2019-Oct-13 07:58N 52°06' E 004°16'0 0.0
2019-Oct-13 07:28N 52°06' E 004°16'0 0.0
2019-Oct-13 06:58N 52°06' E 004°16'0 0.0
2019-Oct-13 06:28N 52°06' E 004°16'0 0.0
2019-Oct-13 05:58N 52°06' E 004°16'0 0.0
2019-Oct-13 05:28N 52°06' E 004°16'0 0.0
2019-Oct-13 04:55N 52°06' E 004°16'0 0.0
2019-Oct-13 04:28N 52°06' E 004°16'0 0.0
2019-Oct-13 03:58N 52°06' E 004°16'0 0.0
2019-Oct-13 03:28N 52°06' E 004°16'0 0.0
2019-Oct-13 02:58N 52°06' E 004°16'0 0.0
2019-Oct-13 02:28N 52°06' E 004°16'0 0.0
2019-Oct-13 01:58N 52°06' E 004°16'0 0.0
2019-Oct-13 01:28N 52°06' E 004°16'0 0.0
2019-Oct-13 00:58N 52°06' E 004°16'0 0.0
2019-Oct-13 00:28N 52°06' E 004°16'0 0.0
2019-Oct-12 23:55N 52°06' E 004°16'0 0.0
2019-Oct-12 23:28N 52°06' E 004°16'0 0.0
2019-Oct-12 22:58N 52°06' E 004°16'0 0.0
2019-Oct-12 22:28N 52°06' E 004°16'0 0.0
2019-Oct-12 21:58N 52°06' E 004°16'0 0.0
2019-Oct-12 21:25N 52°06' E 004°16'0 0.0
2019-Oct-12 20:55N 52°06' E 004°16'0 0.0
2019-Oct-12 20:28N 52°06' E 004°16'0 0.0
2019-Oct-12 19:58N 52°06' E 004°16'0 0.0
2019-Oct-12 19:28N 52°06' E 004°16'0 0.0
2019-Oct-12 18:58N 52°06' E 004°16'0 0.0
2019-Oct-12 18:28N 52°06' E 004°16'0 0.0
2019-Oct-12 17:58N 52°06' E 004°16'0 0.0
2019-Oct-12 17:28N 52°06' E 004°16'0 0.0
2019-Oct-12 16:55N 52°06' E 004°16'0 0.0
2019-Oct-12 16:28N 52°06' E 004°16'0 0.0
2019-Oct-12 15:58N 52°06' E 004°16'0 0.0
2019-Oct-12 15:28N 52°06' E 004°16'0 0.0
2019-Oct-12 14:58N 52°06' E 004°16'0 0.0
2019-Oct-12 14:28N 52°06' E 004°16'0 0.0
2019-Oct-12 13:58N 52°06' E 004°16'0 0.0
2019-Oct-12 13:28N 52°06' E 004°16'0 0.0
2019-Oct-12 12:58N 52°06' E 004°16'0 0.0
2019-Oct-12 12:28N 52°06' E 004°16'0 0.0
2019-Oct-12 11:58N 52°06' E 004°16'0 0.0
2019-Oct-12 11:28N 52°06' E 004°16'0 0.0
2019-Oct-12 10:58N 52°06' E 004°16'0 0.0
2019-Oct-12 10:28N 52°06' E 004°16'0 0.0
2019-Oct-12 09:58N 52°06' E 004°16'0 0.0
2019-Oct-12 09:28N 52°06' E 004°16'0 0.0
2019-Oct-12 08:58N 52°06' E 004°16'0 0.0
2019-Oct-12 08:28N 52°06' E 004°16'0 0.0
2019-Oct-12 07:58N 52°06' E 004°16'0 0.0
2019-Oct-12 07:28N 52°06' E 004°16'0 0.0
2019-Oct-12 06:58N 52°06' E 004°16'0 0.0
2019-Oct-12 06:25N 52°06' E 004°16'0 0.0
2019-Oct-12 05:58N 52°06' E 004°16'0 0.0
2019-Oct-12 05:28N 52°06' E 004°16'0 0.0
2019-Oct-12 04:58N 52°06' E 004°16'0 0.0
2019-Oct-12 04:28N 52°06' E 004°16'0 0.0
2019-Oct-12 03:58N 52°06' E 004°16'0 0.0
2019-Oct-12 03:28N 52°06' E 004°16'0 0.0
2019-Oct-12 02:58N 52°06' E 004°16'0 0.0
2019-Oct-12 02:28N 52°06' E 004°16'0 0.0
2019-Oct-12 01:58N 52°06' E 004°16'0 0.0
2019-Oct-12 01:28N 52°06' E 004°16'0 0.0
2019-Oct-12 00:58N 52°06' E 004°16'0 0.0
2019-Oct-12 00:28N 52°06' E 004°16'0 0.0
2019-Oct-11 23:58N 52°06' E 004°16'0 0.0
2019-Oct-11 23:28N 52°06' E 004°16'0 0.0
2019-Oct-11 22:58N 52°06' E 004°16'0 0.0
2019-Oct-11 22:28N 52°06' E 004°16'0 0.0
2019-Oct-11 21:58N 52°06' E 004°16'0 0.0
2019-Oct-11 21:28N 52°06' E 004°16'0 0.0
2019-Oct-11 20:58N 52°06' E 004°16'0 0.0
2019-Oct-11 20:28N 52°06' E 004°16'0 0.0
2019-Oct-11 19:58N 52°06' E 004°16'0 0.0
2019-Oct-11 19:28N 52°06' E 004°16'0 0.0
2019-Oct-11 18:58N 52°06' E 004°16'0 0.0
2019-Oct-11 18:28N 52°06' E 004°16'0 0.0
2019-Oct-11 17:58N 52°06' E 004°16'0 0.0
2019-Oct-11 17:25N 52°06' E 004°16'0 0.0
2019-Oct-11 16:58N 52°06' E 004°16'0 0.0
2019-Oct-11 16:28N 52°06' E 004°16'0 0.0
2019-Oct-11 15:58N 52°06' E 004°16'0 0.0
2019-Oct-11 15:28N 52°06' E 004°16'0 0.0
2019-Oct-11 14:55N 52°06' E 004°16'0 0.0
2019-Oct-11 14:28N 52°06' E 004°16'0 0.0
2019-Oct-11 13:58N 52°06' E 004°16'0 0.0
2019-Oct-11 13:28N 52°06' E 004°16'0 0.0
2019-Oct-11 12:58N 52°06' E 004°16'0 0.0
2019-Oct-11 12:28N 52°06' E 004°16'0 0.0
2019-Oct-11 11:58N 52°06' E 004°16'0 0.0
2019-Oct-11 11:28N 52°06' E 004°16'0 0.0
2019-Oct-11 10:58N 52°06' E 004°16'0 0.0
2019-Oct-11 10:28N 52°06' E 004°16'0 0.0
2019-Oct-11 09:58N 52°06' E 004°16'0 0.0
2019-Oct-11 09:28N 52°06' E 004°16'0 0.0
2019-Oct-11 08:58N 52°06' E 004°16'0 0.0
2019-Oct-11 08:28N 52°06' E 004°16'0 0.0
2019-Oct-11 07:58N 52°06' E 004°16'0 0.0
2019-Oct-11 07:28N 52°06' E 004°16'0 0.0
2019-Oct-11 06:58N 52°06' E 004°16'0 0.0
2019-Oct-11 06:28N 52°06' E 004°16'0 0.0
2019-Oct-11 05:58N 52°06' E 004°16'0 0.0
2019-Oct-11 05:28N 52°06' E 004°16'0 0.0
2019-Oct-11 04:58N 52°06' E 004°16'0 0.0
2019-Oct-11 04:28N 52°06' E 004°16'0 0.0
2019-Oct-11 03:58N 52°06' E 004°16'0 0.0
2019-Oct-11 03:28N 52°06' E 004°16'0 0.0
2019-Oct-11 02:58N 52°06' E 004°16'0 0.0
2019-Oct-11 02:28N 52°06' E 004°16'0 0.0
2019-Oct-11 01:58N 52°06' E 004°16'0 0.0
2019-Oct-11 01:28N 52°06' E 004°16'0 0.0
2019-Oct-11 00:58N 52°06' E 004°16'0 0.0
2019-Oct-11 00:28N 52°06' E 004°16'0 0.0
2019-Oct-10 23:58N 52°06' E 004°16'0 0.0
2019-Oct-10 23:28N 52°06' E 004°16'0 0.0
2019-Oct-10 22:58N 52°06' E 004°16'0 0.0
2019-Oct-10 22:28N 52°06' E 004°16'0 0.0
2019-Oct-10 21:58N 52°06' E 004°16'0 0.0
2019-Oct-10 21:28N 52°06' E 004°16'0 0.0
2019-Oct-10 20:58N 52°06' E 004°16'0 0.0
2019-Oct-10 20:28N 52°06' E 004°16'0 0.0
2019-Oct-10 19:58N 52°06' E 004°16'0 0.0
2019-Oct-10 19:28N 52°06' E 004°16'0 0.0
2019-Oct-10 18:58N 52°06' E 004°16'0 0.0
2019-Oct-10 18:28N 52°06' E 004°16'0 0.0
2019-Oct-10 17:58N 52°06' E 004°16'0 0.0
2019-Oct-10 17:28N 52°06' E 004°16'0 0.0
2019-Oct-10 16:58N 52°06' E 004°16'0 0.0
2019-Oct-10 16:28N 52°06' E 004°16'0 0.0
2019-Oct-10 15:58N 52°06' E 004°16'0 0.0
2019-Oct-10 15:28N 52°06' E 004°16'0 0.0
2019-Oct-10 14:58N 52°06' E 004°16'0 0.0
2019-Oct-10 14:28N 52°06' E 004°16'0 0.0
2019-Oct-10 13:58N 52°06' E 004°16'0 0.0
2019-Oct-10 13:25N 52°06' E 004°16'0 0.0
2019-Oct-10 12:28N 52°06' E 004°16'0 0.0
2019-Oct-10 11:58N 52°06' E 004°16'0 0.0
2019-Oct-10 11:28N 52°06' E 004°16'0 0.0
2019-Oct-10 10:55N 52°06' E 004°16'0 0.0
2019-Oct-10 10:28N 52°06' E 004°16'0 0.0
2019-Oct-10 09:58N 52°06' E 004°16'0 0.0
2019-Oct-10 09:28N 52°06' E 004°16'0 0.0
2019-Oct-10 08:58N 52°06' E 004°16'0 0.0
2019-Oct-10 08:28N 52°06' E 004°16'0 0.0
2019-Oct-10 07:55N 52°06' E 004°16'0 0.0
2019-Oct-10 07:28N 52°06' E 004°16'0 0.0
2019-Oct-10 06:58N 52°06' E 004°16'0 0.0
2019-Oct-10 06:28N 52°06' E 004°16'0 0.0
2019-Oct-10 05:58N 52°06' E 004°16'0 0.0
2019-Oct-10 05:28N 52°06' E 004°16'0 0.0
2019-Oct-10 04:58N 52°06' E 004°16'0 0.0
2019-Oct-10 04:28N 52°06' E 004°16'0 0.0
2019-Oct-10 03:58N 52°06' E 004°16'0 0.0
2019-Oct-10 03:28N 52°06' E 004°16'0 0.0
2019-Oct-10 02:55N 52°06' E 004°16'0 0.0
2019-Oct-10 02:22N 52°06' E 004°16'0 0.0
2019-Oct-10 01:58N 52°06' E 004°16'0 0.0
2019-Oct-10 01:28N 52°06' E 004°16'0 0.0
2019-Oct-10 00:58N 52°06' E 004°16'0 0.0
2019-Oct-10 00:28N 52°06' E 004°16'0 0.0
2019-Oct-09 23:55N 52°06' E 004°16'0 0.0
2019-Oct-09 23:28N 52°06' E 004°16'0 0.0
2019-Oct-09 22:58N 52°06' E 004°16'0 0.0
2019-Oct-09 22:28N 52°06' E 004°16'0 0.0
2019-Oct-09 21:28N 52°06' E 004°16'0 0.0
2019-Oct-09 20:55N 52°06' E 004°16'0 0.0
2019-Oct-09 20:28N 52°06' E 004°16'0 0.0
2019-Oct-09 19:58N 52°06' E 004°16'0 0.0
2019-Oct-09 19:28N 52°06' E 004°16'0 0.0
2019-Oct-09 18:58N 52°06' E 004°16'0 0.0
2019-Oct-09 18:28N 52°06' E 004°16'0 0.0
2019-Oct-09 17:55N 52°06' E 004°16'0 0.0
2019-Oct-09 17:28N 52°06' E 004°16'0 0.0
2019-Oct-09 16:58N 52°06' E 004°16'0 0.0
2019-Oct-09 16:28N 52°06' E 004°16'0 0.0
2019-Oct-09 15:58N 52°06' E 004°16'0 0.0
2019-Oct-09 15:30N 52°06' E 004°16'3 5.6
2019-Oct-09 15:00N 52°09' E 004°15'5 9.6
2019-Oct-09 14:31N 52°13' E 004°17'5 9.6
2019-Oct-09 14:00N 52°18' E 004°21'2 4.7
2019-Oct-09 13:30N 52°19' E 004°23'5 9.0
2019-Oct-09 13:00N 52°23' E 004°27'4 8.5
2019-Oct-09 12:30N 52°27' E 004°29'3 6.3
2019-Oct-09 12:00N 52°30' E 004°28'1 1.1
2019-Oct-09 11:30N 52°30' E 004°29'1 1.1
2019-Oct-09 11:00N 52°30' E 004°28'0 0.9
2019-Oct-09 10:30N 52°30' E 004°27'0 0.7
2019-Oct-09 10:00N 52°30' E 004°28'1 2.1
2019-Oct-09 09:30N 52°30' E 004°30'2 3.0
2019-Oct-09 09:00N 52°31' E 004°27'2 4.6
2019-Oct-09 08:31N 52°30' E 004°31'3 5.9
2019-Oct-09 08:01N 52°31' E 004°26'3 6.5
2019-Oct-09 07:30N 52°30' E 004°31'4 7.0
2019-Oct-09 07:01N 52°31' E 004°26'3 6.2
2019-Oct-09 06:30N 52°30' E 004°31'3 5.4
2019-Oct-09 06:00N 52°31' E 004°26'3 5.9
2019-Oct-09 05:30N 52°31' E 004°21'0 0.3
2019-Oct-09 04:59N 52°31' E 004°21'0 0.0
2019-Oct-09 04:29N 52°31' E 004°21'0 0.0
2019-Oct-09 03:59N 52°31' E 004°21'0 0.0
2019-Oct-09 03:29N 52°31' E 004°21'0 0.0
2019-Oct-09 02:59N 52°31' E 004°21'0 0.0
2019-Oct-09 02:29N 52°31' E 004°21'0 0.0
2019-Oct-09 01:59N 52°31' E 004°21'0 0.0
2019-Oct-09 01:29N 52°31' E 004°21'0 0.0
2019-Oct-09 00:59N 52°31' E 004°21'0 0.0
2019-Oct-09 00:29N 52°31' E 004°21'0 0.0
2019-Oct-08 23:59N 52°31' E 004°21'0 0.0
2019-Oct-08 23:29N 52°31' E 004°21'0 0.0
2019-Oct-08 22:59N 52°31' E 004°21'0 0.0
2019-Oct-08 22:29N 52°31' E 004°21'0 0.0
2019-Oct-08 21:59N 52°31' E 004°21'0 0.0
2019-Oct-08 21:29N 52°31' E 004°21'0 0.0
2019-Oct-08 20:59N 52°31' E 004°21'0 0.0
2019-Oct-08 20:29N 52°31' E 004°21'0 0.1
2019-Oct-08 19:59N 52°31' E 004°21'0 0.0
2019-Oct-08 19:29N 52°31' E 004°21'0 0.0
2019-Oct-08 18:59N 52°31' E 004°21'1 2.6
2019-Oct-08 18:31N 52°31' E 004°23'3 6.3
2019-Oct-08 18:00N 52°30' E 004°28'0 0.7
2019-Oct-08 17:30N 52°30' E 004°29'0 0.7
2019-Oct-08 17:00N 52°30' E 004°28'0 0.5
2019-Oct-08 16:30N 52°30' E 004°29'1 1.0
2019-Oct-08 16:00N 52°30' E 004°28'1 1.7
2019-Oct-08 15:30N 52°30' E 004°29'1 2.4
2019-Oct-08 15:00N 52°30' E 004°27'2 3.2
2019-Oct-08 14:30N 52°30' E 004°30'2 3.7
2019-Oct-08 14:00N 52°30' E 004°27'2 4.4
2019-Oct-08 13:30N 52°30' E 004°30'2 5.0
2019-Oct-08 13:00N 52°30' E 004°26'3 5.4
2019-Oct-08 12:31N 52°30' E 004°31'3 6.0
2019-Oct-08 12:00N 52°30' E 004°26'3 6.4
2019-Oct-08 11:30N 52°29' E 004°31'3 6.7
2019-Oct-08 11:00N 52°30' E 004°25'3 6.3
2019-Oct-08 10:30N 52°30' E 004°31'3 6.3
2019-Oct-08 10:00N 52°30' E 004°26'3 5.6
2019-Oct-08 09:30N 52°30' E 004°30'3 5.1
2019-Oct-08 09:00N 52°30' E 004°26'2 4.4
2019-Oct-08 08:30N 52°30' E 004°29'2 4.1
2019-Oct-08 08:00N 52°30' E 004°26'2 4.6
2019-Oct-08 07:31N 52°30' E 004°30'3 5.0
2019-Oct-08 07:00N 52°30' E 004°26'3 5.3
2019-Oct-08 06:30N 52°29' E 004°30'3 5.2
2019-Oct-08 06:00N 52°30' E 004°26'2 4.1
2019-Oct-08 05:31N 52°30' E 004°23'1 1.4
2019-Oct-08 04:58N 52°31' E 004°21'0 0.0
2019-Oct-08 04:28N 52°31' E 004°21'0 0.0
2019-Oct-08 03:58N 52°31' E 004°21'0 0.1
2019-Oct-08 03:28N 52°31' E 004°21'0 0.0
2019-Oct-08 02:58N 52°31' E 004°21'0 0.0
2019-Oct-08 02:28N 52°31' E 004°21'0 0.0
2019-Oct-08 01:58N 52°31' E 004°21'0 0.0
2019-Oct-08 01:28N 52°31' E 004°21'0 0.1
2019-Oct-08 00:58N 52°31' E 004°21'0 0.0
2019-Oct-08 00:28N 52°31' E 004°21'0 0.0
2019-Oct-07 23:58N 52°31' E 004°21'0 0.0
2019-Oct-07 23:28N 52°31' E 004°21'0 0.0
2019-Oct-07 22:58N 52°31' E 004°21'0 0.0
2019-Oct-07 22:28N 52°31' E 004°21'0 0.0
2019-Oct-07 21:58N 52°31' E 004°21'0 0.0
2019-Oct-07 21:28N 52°31' E 004°21'0 0.0
2019-Oct-07 20:58N 52°31' E 004°21'0 0.0
2019-Oct-07 20:28N 52°31' E 004°21'0 0.0
2019-Oct-07 19:58N 52°31' E 004°21'0 0.0
2019-Oct-07 19:28N 52°31' E 004°21'0 0.0
2019-Oct-07 18:58N 52°31' E 004°21'  
Track history (hours):
 
Tides and Currents Weather Stations Pressure Air Temp Water Temp Dewpoint Dewpoint Depression Visibility Wind Speed Wind Dir Waves Ship Positions

Oceanographic research ship Arca (Netherlands)

Detailed information on ship capabilities available from University of Delaware's Ocean Information Center.

Last reported at 2019-Oct-17 18:29 UTC. Time now 2019-Oct-17 18:34 UTC.
Position N 52°06' E 004°16'.

Length 83 m; draft 5 m.

Type: Law enforcement. MMSI: 244454000.

Date/timePositionNaut miles runAvg speedWind from/ knotsBaromVisibWave heightAir tempDewpointWater temp
2019-Oct-17 18:29N 52°06' E 004°16'0 0.0
2019-Oct-17 17:59N 52°06' E 004°16'0 0.0
2019-Oct-17 17:29N 52°06' E 004°16'0 0.0
2019-Oct-17 16:59N 52°06' E 004°16'2 3.3
2019-Oct-17 16:31N 52°07' E 004°14'714.2
2019-Oct-17 16:00N 52°04' E 004°04'714.2
2019-Oct-17 15:30N 52°01' E 003°54'714.0
2019-Oct-17 15:00N 51°59' E 003°42'713.7
2019-Oct-17 14:29N 51°57' E 003°32'11 5.1
2019-Oct-17 12:21N 51°53' E 003°15'2 0.6
2019-Oct-17 08:22N 51°51' E 003°13'1 1.0
2019-Oct-17 07:12N 51°50' E 003°11'1 0.1
2019-Oct-16 23:06N 51°50' E 003°13'1 0.2
2019-Oct-16 20:36N 51°51' E 003°13'2 0.6
2019-Oct-16 17:47N 51°52' E 003°14'1 0.1
2019-Oct-16 11:37N 51°52' E 003°14'0 0.0
2019-Oct-16 10:07N 51°52' E 003°14'4 1.1
2019-Oct-16 06:40N 51°48' E 003°13'2 0.3
2019-Oct-15 23:34N 51°50' E 003°15'3 3.6
2019-Oct-15 22:42N 51°53' E 003°15'23 8.0
2019-Oct-15 19:48N 51°31' E 003°27'412.3
2019-Oct-15 19:29N 51°28' E 003°31'4 7.0
2019-Oct-15 18:59N 51°26' E 003°36'5 8.9
2019-Oct-15 18:22N 51°30' E 003°29'23 5.5
2019-Oct-15 14:11N 51°51' E 003°15'1 0.3
2019-Oct-15 10:12N 51°52' E 003°15'3 7.0
2019-Oct-15 09:49N 51°49' E 003°14'0 0.1
2019-Oct-15 08:29N 51°49' E 003°15'3 1.1
2019-Oct-15 05:54N 51°52' E 003°16'3 0.2
2019-Oct-14 18:46N 51°49' E 003°15'5 8.0
2019-Oct-14 18:12N 51°54' E 003°17'3 6.3
2019-Oct-14 17:47N 51°51' E 003°16'11 6.4
2019-Oct-14 16:06N 51°52' E 003°34'111.2
2019-Oct-14 15:58N 51°52' E 003°36'510.7
2019-Oct-14 15:30N 51°54' E 003°43'5 9.7
2019-Oct-14 15:00N 51°57' E 003°50'510.0
2019-Oct-14 14:30N 52°00' E 003°56'2 3.3
2019-Oct-14 14:00N 52°02' E 003°55'1 2.2
2019-Oct-14 13:31N 52°02' E 003°56'1 2.9
2019-Oct-14 13:00N 52°02' E 003°59'4 8.6
2019-Oct-14 12:30N 52°05' E 004°04'612.1
2019-Oct-14 12:00N 52°08' E 004°12'3 3.3
2019-Oct-14 11:00N 52°06' E 004°16'0 0.0
2019-Oct-14 10:28N 52°06' E 004°16'0 0.0
2019-Oct-14 09:58N 52°06' E 004°16'0 0.0
2019-Oct-14 09:28N 52°06' E 004°16'0 0.0
2019-Oct-14 08:58N 52°06' E 004°16'0 0.0
2019-Oct-14 08:28N 52°06' E 004°16'0 0.0
2019-Oct-14 07:58N 52°06' E 004°16'0 0.0
2019-Oct-14 07:28N 52°06' E 004°16'0 0.0
2019-Oct-14 06:52N 52°06' E 004°16'0 0.0
2019-Oct-14 06:28N 52°06' E 004°16'0 0.0
2019-Oct-14 05:58N 52°06' E 004°16'0 0.0
2019-Oct-14 05:28N 52°06' E 004°16'0 0.0
2019-Oct-14 04:58N 52°06' E 004°16'0 0.0
2019-Oct-14 04:28N 52°06' E 004°16'0 0.0
2019-Oct-14 03:58N 52°06' E 004°16'0 0.0
2019-Oct-14 03:28N 52°06' E 004°16'0 0.0
2019-Oct-14 02:58N 52°06' E 004°16'0 0.0
2019-Oct-14 02:25N 52°06' E 004°16'0 0.0
2019-Oct-14 01:55N 52°06' E 004°16'0 0.0
2019-Oct-14 01:25N 52°06' E 004°16'0 0.0
2019-Oct-14 00:58N 52°06' E 004°16'0 0.0
2019-Oct-14 00:28N 52°06' E 004°16'0 0.0
2019-Oct-13 23:58N 52°06' E 004°16'0 0.0
2019-Oct-13 23:28N 52°06' E 004°16'0 0.0
2019-Oct-13 22:58N 52°06' E 004°16'0 0.0
2019-Oct-13 22:28N 52°06' E 004°16'0 0.0
2019-Oct-13 21:58N 52°06' E 004°16'0 0.0
2019-Oct-13 21:28N 52°06' E 004°16'0 0.0
2019-Oct-13 20:58N 52°06' E 004°16'0 0.0
2019-Oct-13 20:28N 52°06' E 004°16'0 0.0
2019-Oct-13 19:58N 52°06' E 004°16'0 0.0
2019-Oct-13 19:28N 52°06' E 004°16'0 0.0
2019-Oct-13 18:58N 52°06' E 004°16'0 0.0
2019-Oct-13 18:28N 52°06' E 004°16'0 0.0
2019-Oct-13 17:58N 52°06' E 004°16'0 0.0
2019-Oct-13 17:28N 52°06' E 004°16'0 0.0
2019-Oct-13 16:58N 52°06' E 004°16'0 0.0
2019-Oct-13 16:28N 52°06' E 004°16'0 0.0
2019-Oct-13 15:58N 52°06' E 004°16'0 0.0
2019-Oct-13 15:28N 52°06' E 004°16'0 0.0
2019-Oct-13 14:58N 52°06' E 004°16'0 0.0
2019-Oct-13 14:25N 52°06' E 004°16'0 0.0
2019-Oct-13 13:58N 52°06' E 004°16'0 0.0
2019-Oct-13 13:28N 52°06' E 004°16'0 0.0
2019-Oct-13 12:58N 52°06' E 004°16'0 0.0
2019-Oct-13 12:28N 52°06' E 004°16'0 0.0
2019-Oct-13 11:58N 52°06' E 004°16'0 0.0
2019-Oct-13 11:28N 52°06' E 004°16'0 0.0
2019-Oct-13 10:58N 52°06' E 004°16'0 0.0
2019-Oct-13 10:28N 52°06' E 004°16'0 0.0
2019-Oct-13 09:58N 52°06' E 004°16'0 0.0
2019-Oct-13 09:28N 52°06' E 004°16'0 0.0
2019-Oct-13 08:58N 52°06' E 004°16'0 0.0
2019-Oct-13 08:28N 52°06' E 004°16'0 0.0
2019-Oct-13 07:58N 52°06' E 004°16'0 0.0
2019-Oct-13 07:28N 52°06' E 004°16'0 0.0
2019-Oct-13 06:58N 52°06' E 004°16'0 0.0
2019-Oct-13 06:28N 52°06' E 004°16'0 0.0
2019-Oct-13 05:58N 52°06' E 004°16'0 0.0
2019-Oct-13 05:28N 52°06' E 004°16'0 0.0
2019-Oct-13 04:55N 52°06' E 004°16'0 0.0
2019-Oct-13 04:28N 52°06' E 004°16'0 0.0
2019-Oct-13 03:58N 52°06' E 004°16'0 0.0
2019-Oct-13 03:28N 52°06' E 004°16'0 0.0
2019-Oct-13 02:58N 52°06' E 004°16'0 0.0
2019-Oct-13 02:28N 52°06' E 004°16'0 0.0
2019-Oct-13 01:58N 52°06' E 004°16'0 0.0
2019-Oct-13 01:28N 52°06' E 004°16'0 0.0
2019-Oct-13 00:58N 52°06' E 004°16'0 0.0
2019-Oct-13 00:28N 52°06' E 004°16'0 0.0
2019-Oct-12 23:55N 52°06' E 004°16'0 0.0
2019-Oct-12 23:28N 52°06' E 004°16'0 0.0
2019-Oct-12 22:58N 52°06' E 004°16'0 0.0
2019-Oct-12 22:28N 52°06' E 004°16'0 0.0
2019-Oct-12 21:58N 52°06' E 004°16'0 0.0
2019-Oct-12 21:25N 52°06' E 004°16'0 0.0
2019-Oct-12 20:55N 52°06' E 004°16'0 0.0
2019-Oct-12 20:28N 52°06' E 004°16'0 0.0
2019-Oct-12 19:58N 52°06' E 004°16'0 0.0
2019-Oct-12 19:28N 52°06' E 004°16'0 0.0
2019-Oct-12 18:58N 52°06' E 004°16'0 0.0
2019-Oct-12 18:28N 52°06' E 004°16'0 0.0
2019-Oct-12 17:58N 52°06' E 004°16'0 0.0
2019-Oct-12 17:28N 52°06' E 004°16'0 0.0
2019-Oct-12 16:55N 52°06' E 004°16'0 0.0
2019-Oct-12 16:28N 52°06' E 004°16'0 0.0
2019-Oct-12 15:58N 52°06' E 004°16'0 0.0
2019-Oct-12 15:28N 52°06' E 004°16'0 0.0
2019-Oct-12 14:58N 52°06' E 004°16'0 0.0
2019-Oct-12 14:28N 52°06' E 004°16'0 0.0
2019-Oct-12 13:58N 52°06' E 004°16'0 0.0
2019-Oct-12 13:28N 52°06' E 004°16'0 0.0
2019-Oct-12 12:58N 52°06' E 004°16'0 0.0
2019-Oct-12 12:28N 52°06' E 004°16'0 0.0
2019-Oct-12 11:58N 52°06' E 004°16'0 0.0
2019-Oct-12 11:28N 52°06' E 004°16'0 0.0
2019-Oct-12 10:58N 52°06' E 004°16'0 0.0
2019-Oct-12 10:28N 52°06' E 004°16'0 0.0
2019-Oct-12 09:58N 52°06' E 004°16'0 0.0
2019-Oct-12 09:28N 52°06' E 004°16'0 0.0
2019-Oct-12 08:58N 52°06' E 004°16'0 0.0
2019-Oct-12 08:28N 52°06' E 004°16'0 0.0
2019-Oct-12 07:58N 52°06' E 004°16'0 0.0
2019-Oct-12 07:28N 52°06' E 004°16'0 0.0
2019-Oct-12 06:58N 52°06' E 004°16'0 0.0
2019-Oct-12 06:25N 52°06' E 004°16'0 0.0
2019-Oct-12 05:58N 52°06' E 004°16'0 0.0
2019-Oct-12 05:28N 52°06' E 004°16'0 0.0
2019-Oct-12 04:58N 52°06' E 004°16'0 0.0
2019-Oct-12 04:28N 52°06' E 004°16'0 0.0
2019-Oct-12 03:58N 52°06' E 004°16'0 0.0
2019-Oct-12 03:28N 52°06' E 004°16'0 0.0
2019-Oct-12 02:58N 52°06' E 004°16'0 0.0
2019-Oct-12 02:28N 52°06' E 004°16'0 0.0
2019-Oct-12 01:58N 52°06' E 004°16'0 0.0
2019-Oct-12 01:28N 52°06' E 004°16'0 0.0
2019-Oct-12 00:58N 52°06' E 004°16'0 0.0
2019-Oct-12 00:28N 52°06' E 004°16'0 0.0
2019-Oct-11 23:58N 52°06' E 004°16'0 0.0
2019-Oct-11 23:28N 52°06' E 004°16'0 0.0
2019-Oct-11 22:58N 52°06' E 004°16'0 0.0
2019-Oct-11 22:28N 52°06' E 004°16'0 0.0
2019-Oct-11 21:58N 52°06' E 004°16'0 0.0
2019-Oct-11 21:28N 52°06' E 004°16'0 0.0
2019-Oct-11 20:58N 52°06' E 004°16'0 0.0
2019-Oct-11 20:28N 52°06' E 004°16'0 0.0
2019-Oct-11 19:58N 52°06' E 004°16'0 0.0
2019-Oct-11 19:28N 52°06' E 004°16'0 0.0
2019-Oct-11 18:58N 52°06' E 004°16'0 0.0
2019-Oct-11 18:28N 52°06' E 004°16'0 0.0
2019-Oct-11 17:58N 52°06' E 004°16'0 0.0
2019-Oct-11 17:25N 52°06' E 004°16'0 0.0
2019-Oct-11 16:58N 52°06' E 004°16'0 0.0
2019-Oct-11 16:28N 52°06' E 004°16'0 0.0
2019-Oct-11 15:58N 52°06' E 004°16'0 0.0
2019-Oct-11 15:28N 52°06' E 004°16'0 0.0
2019-Oct-11 14:55N 52°06' E 004°16'0 0.0
2019-Oct-11 14:28N 52°06' E 004°16'0 0.0
2019-Oct-11 13:58N 52°06' E 004°16'0 0.0
2019-Oct-11 13:28N 52°06' E 004°16'0 0.0
2019-Oct-11 12:58N 52°06' E 004°16'0 0.0
2019-Oct-11 12:28N 52°06' E 004°16'0 0.0
2019-Oct-11 11:58N 52°06' E 004°16'0 0.0
2019-Oct-11 11:28N 52°06' E 004°16'0 0.0
2019-Oct-11 10:58N 52°06' E 004°16'0 0.0
2019-Oct-11 10:28N 52°06' E 004°16'0 0.0
2019-Oct-11 09:58N 52°06' E 004°16'0 0.0
2019-Oct-11 09:28N 52°06' E 004°16'0 0.0
2019-Oct-11 08:58N 52°06' E 004°16'0 0.0
2019-Oct-11 08:28N 52°06' E 004°16'0 0.0
2019-Oct-11 07:58N 52°06' E 004°16'0 0.0
2019-Oct-11 07:28N 52°06' E 004°16'0 0.0
2019-Oct-11 06:58N 52°06' E 004°16'0 0.0
2019-Oct-11 06:28N 52°06' E 004°16'0 0.0
2019-Oct-11 05:58N 52°06' E 004°16'0 0.0
2019-Oct-11 05:28N 52°06' E 004°16'0 0.0
2019-Oct-11 04:58N 52°06' E 004°16'0 0.0
2019-Oct-11 04:28N 52°06' E 004°16'0 0.0
2019-Oct-11 03:58N 52°06' E 004°16'0 0.0
2019-Oct-11 03:28N 52°06' E 004°16'0 0.0
2019-Oct-11 02:58N 52°06' E 004°16'0 0.0
2019-Oct-11 02:28N 52°06' E 004°16'0 0.0
2019-Oct-11 01:58N 52°06' E 004°16'0 0.0
2019-Oct-11 01:28N 52°06' E 004°16'0 0.0
2019-Oct-11 00:58N 52°06' E 004°16'0 0.0
2019-Oct-11 00:28N 52°06' E 004°16'0 0.0
2019-Oct-10 23:58N 52°06' E 004°16'0 0.0
2019-Oct-10 23:28N 52°06' E 004°16'0 0.0
2019-Oct-10 22:58N 52°06' E 004°16'0 0.0
2019-Oct-10 22:28N 52°06' E 004°16'0 0.0
2019-Oct-10 21:58N 52°06' E 004°16'0 0.0
2019-Oct-10 21:28N 52°06' E 004°16'0 0.0
2019-Oct-10 20:58N 52°06' E 004°16'0 0.0
2019-Oct-10 20:28N 52°06' E 004°16'0 0.0
2019-Oct-10 19:58N 52°06' E 004°16'0 0.0
2019-Oct-10 19:28N 52°06' E 004°16'0 0.0
2019-Oct-10 18:58N 52°06' E 004°16'0 0.0
2019-Oct-10 18:28N 52°06' E 004°16'0 0.0
2019-Oct-10 17:58N 52°06' E 004°16'0 0.0
2019-Oct-10 17:28N 52°06' E 004°16'0 0.0
2019-Oct-10 16:58N 52°06' E 004°16'0 0.0
2019-Oct-10 16:28N 52°06' E 004°16'0 0.0
2019-Oct-10 15:58N 52°06' E 004°16'0 0.0
2019-Oct-10 15:28N 52°06' E 004°16'0 0.0
2019-Oct-10 14:58N 52°06' E 004°16'0 0.0
2019-Oct-10 14:28N 52°06' E 004°16'0 0.0
2019-Oct-10 13:58N 52°06' E 004°16'0 0.0
2019-Oct-10 13:25N 52°06' E 004°16'0 0.0
2019-Oct-10 12:28N 52°06' E 004°16'0 0.0
2019-Oct-10 11:58N 52°06' E 004°16'0 0.0
2019-Oct-10 11:28N 52°06' E 004°16'0 0.0
2019-Oct-10 10:55N 52°06' E 004°16'0 0.0
2019-Oct-10 10:28N 52°06' E 004°16'0 0.0
2019-Oct-10 09:58N 52°06' E 004°16'0 0.0
2019-Oct-10 09:28N 52°06' E 004°16'0 0.0
2019-Oct-10 08:58N 52°06' E 004°16'0 0.0
2019-Oct-10 08:28N 52°06' E 004°16'0 0.0
2019-Oct-10 07:55N 52°06' E 004°16'0 0.0
2019-Oct-10 07:28N 52°06' E 004°16'0 0.0
2019-Oct-10 06:58N 52°06' E 004°16'0 0.0
2019-Oct-10 06:28N 52°06' E 004°16'0 0.0
2019-Oct-10 05:58N 52°06' E 004°16'0 0.0
2019-Oct-10 05:28N 52°06' E 004°16'0 0.0
2019-Oct-10 04:58N 52°06' E 004°16'0 0.0
2019-Oct-10 04:28N 52°06' E 004°16'0 0.0
2019-Oct-10 03:58N 52°06' E 004°16'0 0.0
2019-Oct-10 03:28N 52°06' E 004°16'0 0.0
2019-Oct-10 02:55N 52°06' E 004°16'0 0.0
2019-Oct-10 02:22N 52°06' E 004°16'0 0.0
2019-Oct-10 01:58N 52°06' E 004°16'0 0.0
2019-Oct-10 01:28N 52°06' E 004°16'0 0.0
2019-Oct-10 00:58N 52°06' E 004°16'0 0.0
2019-Oct-10 00:28N 52°06' E 004°16'0 0.0
2019-Oct-09 23:55N 52°06' E 004°16'0 0.0
2019-Oct-09 23:28N 52°06' E 004°16'0 0.0
2019-Oct-09 22:58N 52°06' E 004°16'0 0.0
2019-Oct-09 22:28N 52°06' E 004°16'0 0.0
2019-Oct-09 21:28N 52°06' E 004°16'0 0.0
2019-Oct-09 20:55N 52°06' E 004°16'0 0.0
2019-Oct-09 20:28N 52°06' E 004°16'0 0.0
2019-Oct-09 19:58N 52°06' E 004°16'0 0.0
2019-Oct-09 19:28N 52°06' E 004°16'0 0.0
2019-Oct-09 18:58N 52°06' E 004°16'0 0.0
2019-Oct-09 18:28N 52°06' E 004°16'0 0.0
2019-Oct-09 17:55N 52°06' E 004°16'0 0.0
2019-Oct-09 17:28N 52°06' E 004°16'0 0.0
2019-Oct-09 16:58N 52°06' E 004°16'0 0.0
2019-Oct-09 16:28N 52°06' E 004°16'0 0.0
2019-Oct-09 15:58N 52°06' E 004°16'0 0.0
2019-Oct-09 15:30N 52°06' E 004°16'3 5.6
2019-Oct-09 15:00N 52°09' E 004°15'5 9.6
2019-Oct-09 14:31N 52°13' E 004°17'5 9.6
2019-Oct-09 14:00N 52°18' E 004°21'2 4.7
2019-Oct-09 13:30N 52°19' E 004°23'5 9.0
2019-Oct-09 13:00N 52°23' E 004°27'4 8.5
2019-Oct-09 12:30N 52°27' E 004°29'3 6.3
2019-Oct-09 12:00N 52°30' E 004°28'1 1.1
2019-Oct-09 11:30N 52°30' E 004°29'1 1.1
2019-Oct-09 11:00N 52°30' E 004°28'0 0.9
2019-Oct-09 10:30N 52°30' E 004°27'0 0.7
2019-Oct-09 10:00N 52°30' E 004°28'1 2.1
2019-Oct-09 09:30N 52°30' E 004°30'2 3.0
2019-Oct-09 09:00N 52°31' E 004°27'2 4.6
2019-Oct-09 08:31N 52°30' E 004°31'3 5.9
2019-Oct-09 08:01N 52°31' E 004°26'3 6.5
2019-Oct-09 07:30N 52°30' E 004°31'4 7.0
2019-Oct-09 07:01N 52°31' E 004°26'3 6.2
2019-Oct-09 06:30N 52°30' E 004°31'3 5.4
2019-Oct-09 06:00N 52°31' E 004°26'3 5.9
2019-Oct-09 05:30N 52°31' E 004°21'0 0.3
2019-Oct-09 04:59N 52°31' E 004°21'0 0.0
2019-Oct-09 04:29N 52°31' E 004°21'0 0.0
2019-Oct-09 03:59N 52°31' E 004°21'0 0.0
2019-Oct-09 03:29N 52°31' E 004°21'0 0.0
2019-Oct-09 02:59N 52°31' E 004°21'0 0.0
2019-Oct-09 02:29N 52°31' E 004°21'0 0.0
2019-Oct-09 01:59N 52°31' E 004°21'0 0.0
2019-Oct-09 01:29N 52°31' E 004°21'0 0.0
2019-Oct-09 00:59N 52°31' E 004°21'0 0.0
2019-Oct-09 00:29N 52°31' E 004°21'0 0.0
2019-Oct-08 23:59N 52°31' E 004°21'0 0.0
2019-Oct-08 23:29N 52°31' E 004°21'0 0.0
2019-Oct-08 22:59N 52°31' E 004°21'0 0.0
2019-Oct-08 22:29N 52°31' E 004°21'0 0.0
2019-Oct-08 21:59N 52°31' E 004°21'0 0.0
2019-Oct-08 21:29N 52°31' E 004°21'0 0.0
2019-Oct-08 20:59N 52°31' E 004°21'0 0.0
2019-Oct-08 20:29N 52°31' E 004°21'0 0.1
2019-Oct-08 19:59N 52°31' E 004°21'0 0.0
2019-Oct-08 19:29N 52°31' E 004°21'0 0.0
2019-Oct-08 18:59N 52°31' E 004°21'1 2.6
2019-Oct-08 18:31N 52°31' E 004°23'3 6.3
2019-Oct-08 18:00N 52°30' E 004°28'0 0.7
2019-Oct-08 17:30N 52°30' E 004°29'0 0.7
2019-Oct-08 17:00N 52°30' E 004°28'0 0.5
2019-Oct-08 16:30N 52°30' E 004°29'1 1.0
2019-Oct-08 16:00N 52°30' E 004°28'1 1.7
2019-Oct-08 15:30N 52°30' E 004°29'1 2.4
2019-Oct-08 15:00N 52°30' E 004°27'2 3.2
2019-Oct-08 14:30N 52°30' E 004°30'2 3.7
2019-Oct-08 14:00N 52°30' E 004°27'2 4.4
2019-Oct-08 13:30N 52°30' E 004°30'2 5.0
2019-Oct-08 13:00N 52°30' E 004°26'3 5.4
2019-Oct-08 12:31N 52°30' E 004°31'3 6.0
2019-Oct-08 12:00N 52°30' E 004°26'3 6.4
2019-Oct-08 11:30N 52°29' E 004°31'3 6.7
2019-Oct-08 11:00N 52°30' E 004°25'3 6.3
2019-Oct-08 10:30N 52°30' E 004°31'3 6.3
2019-Oct-08 10:00N 52°30' E 004°26'3 5.6
2019-Oct-08 09:30N 52°30' E 004°30'3 5.1
2019-Oct-08 09:00N 52°30' E 004°26'2 4.4
2019-Oct-08 08:30N 52°30' E 004°29'2 4.1
2019-Oct-08 08:00N 52°30' E 004°26'2 4.6
2019-Oct-08 07:31N 52°30' E 004°30'3 5.0
2019-Oct-08 07:00N 52°30' E 004°26'3 5.3
2019-Oct-08 06:30N 52°29' E 004°30'3 5.2
2019-Oct-08 06:00N 52°30' E 004°26'2 4.1
2019-Oct-08 05:31N 52°30' E 004°23'1 1.4
2019-Oct-08 04:58N 52°31' E 004°21'0 0.0
2019-Oct-08 04:28N 52°31' E 004°21'0 0.0
2019-Oct-08 03:58N 52°31' E 004°21'0 0.1
2019-Oct-08 03:28N 52°31' E 004°21'0 0.0
2019-Oct-08 02:58N 52°31' E 004°21'0 0.0
2019-Oct-08 02:28N 52°31' E 004°21'0 0.0
2019-Oct-08 01:58N 52°31' E 004°21'0 0.0
2019-Oct-08 01:28N 52°31' E 004°21'0 0.1
2019-Oct-08 00:58N 52°31' E 004°21'0 0.0
2019-Oct-08 00:28N 52°31' E 004°21'0 0.0
2019-Oct-07 23:58N 52°31' E 004°21'0 0.0
2019-Oct-07 23:28N 52°31' E 004°21'0 0.0
2019-Oct-07 22:58N 52°31' E 004°21'0 0.0
2019-Oct-07 22:28N 52°31' E 004°21'0 0.0
2019-Oct-07 21:58N 52°31' E 004°21'0 0.0
2019-Oct-07 21:28N 52°31' E 004°21'0 0.0
2019-Oct-07 20:58N 52°31' E 004°21'0 0.0
2019-Oct-07 20:28N 52°31' E 004°21'0 0.0
2019-Oct-07 19:58N 52°31' E 004°21'0 0.0
2019-Oct-07 19:28N 52°31' E 004°21'0 0.0
2019-Oct-07 18:58N 52°31' E 004°21'  

Dump ship's entire track history